True Love — WDG3367 — position and weather

sailwx.info

Track history (hours):
 
Tides and Currents Weather Stations Pressure Air Temp Water Temp Dewpoint Dewpoint Depression Visibility Wind Speed Wind Dir Waves Ship Positions

True Love

Owner: Spady, James R, Snoqualmie Pass, WA. More information available from US FCC via Universal Licensing System and Coast Guard Vessel Documentation Center.

Last reported at 2016-Jul-01 23:33 UTC. Time now 2016-Jul-02 00:24 UTC.
Position N 47°38' W 122°25'.

Length 16 m.

Type: Pleasure craft. MMSI: 367525310.

Date/timePositionNaut miles runAvg speedWind from/ knotsBaromVisibWave heightAir tempDewpointWater temp
2016-Jul-01 23:33N 47°38' W 122°25'  
2016-Jun-29 01:19N 47°38' W 122°23'4 4.7
2016-Jun-29 00:33N 47°41' W 122°25'  
2016-Jun-24 19:33N 47°38' W 122°24'0 0.0
2016-Jun-24 18:32N 47°38' W 122°24'0 0.0
2016-Jun-24 17:33N 47°38' W 122°24'0 0.0
2016-Jun-24 16:32N 47°38' W 122°24'0 0.0
2016-Jun-24 15:32N 47°38' W 122°24'0 0.0
2016-Jun-24 14:33N 47°38' W 122°24'0 0.0
2016-Jun-24 13:33N 47°38' W 122°24'0 0.0
2016-Jun-24 12:33N 47°38' W 122°24'0 0.0
2016-Jun-24 11:32N 47°38' W 122°24'0 0.0
2016-Jun-24 10:33N 47°38' W 122°24'0 0.0
2016-Jun-24 09:33N 47°38' W 122°24'0 0.0
2016-Jun-24 08:32N 47°38' W 122°24'0 0.0
2016-Jun-24 07:33N 47°38' W 122°24'0 0.0
2016-Jun-24 04:30N 47°38' W 122°24'0 0.0
2016-Jun-24 03:32N 47°38' W 122°24'0 0.0
2016-Jun-24 02:24N 47°38' W 122°24'0 0.0
2016-Jun-24 01:33N 47°38' W 122°24'0 0.0
2016-Jun-24 00:32N 47°38' W 122°24'0 0.0
2016-Jun-23 23:34N 47°38' W 122°24'0 0.0
2016-Jun-23 22:32N 47°38' W 122°24'0 0.0
2016-Jun-23 21:32N 47°38' W 122°24'0 0.0
2016-Jun-23 20:29N 47°38' W 122°24'0 0.0
2016-Jun-23 19:32N 47°38' W 122°24'0 0.0
2016-Jun-23 18:33N 47°38' W 122°24'0 0.0
2016-Jun-23 17:33N 47°38' W 122°24'0 0.0
2016-Jun-23 16:32N 47°38' W 122°24'0 0.0
2016-Jun-23 15:33N 47°38' W 122°24'0 0.0
2016-Jun-23 14:32N 47°38' W 122°24'0 0.0
2016-Jun-23 13:33N 47°38' W 122°24'0 0.0
2016-Jun-23 12:32N 47°38' W 122°24'0 0.0
2016-Jun-23 11:33N 47°38' W 122°24'0 0.0
2016-Jun-23 10:33N 47°38' W 122°24'0 0.0
2016-Jun-23 09:32N 47°38' W 122°24'0 0.0
2016-Jun-23 08:33N 47°38' W 122°24'0 0.0
2016-Jun-23 07:33N 47°38' W 122°24'0 0.0
2016-Jun-23 05:32N 47°38' W 122°24'0 0.0
2016-Jun-23 04:33N 47°38' W 122°24'0 0.0
2016-Jun-23 03:33N 47°38' W 122°24'0 0.0
2016-Jun-23 02:27N 47°38' W 122°24'0 0.0
2016-Jun-23 01:33N 47°38' W 122°24'0 0.0
2016-Jun-23 00:32N 47°38' W 122°24'0 0.0
2016-Jun-22 23:32N 47°38' W 122°24'0 0.0
2016-Jun-22 22:33N 47°38' W 122°24'0 0.0
2016-Jun-22 21:32N 47°38' W 122°24'0 0.0
2016-Jun-22 20:32N 47°38' W 122°24'0 0.0
2016-Jun-22 19:33N 47°38' W 122°24'0 0.0
2016-Jun-22 18:33N 47°38' W 122°24'0 0.0
2016-Jun-22 17:33N 47°38' W 122°24'0 0.0
2016-Jun-22 16:33N 47°38' W 122°24'0 0.0
2016-Jun-22 15:32N 47°38' W 122°24'0 0.0
2016-Jun-22 14:33N 47°38' W 122°24'0 0.0
2016-Jun-22 13:33N 47°38' W 122°24'0 0.0
2016-Jun-22 12:33N 47°38' W 122°24'0 0.0
2016-Jun-22 11:32N 47°38' W 122°24'0 0.0
2016-Jun-22 10:24N 47°38' W 122°24'0 0.0
2016-Jun-22 09:33N 47°38' W 122°24'0 0.0
2016-Jun-22 08:33N 47°38' W 122°24'0 0.0
2016-Jun-22 07:32N 47°38' W 122°24'0 0.0
2016-Jun-22 06:32N 47°38' W 122°24'0 0.0
2016-Jun-22 05:33N 47°38' W 122°24'0 0.0
2016-Jun-22 04:32N 47°38' W 122°24'6 6.1
2016-Jun-22 03:33N 47°33' W 122°30'1 1.1
2016-Jun-22 02:28N 47°32' W 122°30'0 0.0
2016-Jun-22 01:28N 47°32' W 122°30'7 7.5
2016-Jun-22 00:33N 47°38' W 122°24'  
Track history (hours):
 
Tides and Currents Weather Stations Pressure Air Temp Water Temp Dewpoint Dewpoint Depression Visibility Wind Speed Wind Dir Waves Ship Positions

True Love

Owner: Spady, James R, Snoqualmie Pass, WA. More information available from US FCC via Universal Licensing System and Coast Guard Vessel Documentation Center.

Last reported at 2016-Jul-01 23:33 UTC. Time now 2016-Jul-02 00:24 UTC.
Position N 47°38' W 122°25'.

Length 16 m.

Type: Pleasure craft. MMSI: 367525310.

Date/timePositionNaut miles runAvg speedWind from/ knotsBaromVisibWave heightAir tempDewpointWater temp
2016-Jul-01 23:33N 47°38' W 122°25'  
2016-Jun-29 01:19N 47°38' W 122°23'4 4.7
2016-Jun-29 00:33N 47°41' W 122°25'  
2016-Jun-24 19:33N 47°38' W 122°24'0 0.0
2016-Jun-24 18:32N 47°38' W 122°24'0 0.0
2016-Jun-24 17:33N 47°38' W 122°24'0 0.0
2016-Jun-24 16:32N 47°38' W 122°24'0 0.0
2016-Jun-24 15:32N 47°38' W 122°24'0 0.0
2016-Jun-24 14:33N 47°38' W 122°24'0 0.0
2016-Jun-24 13:33N 47°38' W 122°24'0 0.0
2016-Jun-24 12:33N 47°38' W 122°24'0 0.0
2016-Jun-24 11:32N 47°38' W 122°24'0 0.0
2016-Jun-24 10:33N 47°38' W 122°24'0 0.0
2016-Jun-24 09:33N 47°38' W 122°24'0 0.0
2016-Jun-24 08:32N 47°38' W 122°24'0 0.0
2016-Jun-24 07:33N 47°38' W 122°24'0 0.0
2016-Jun-24 04:30N 47°38' W 122°24'0 0.0
2016-Jun-24 03:32N 47°38' W 122°24'0 0.0
2016-Jun-24 02:24N 47°38' W 122°24'0 0.0
2016-Jun-24 01:33N 47°38' W 122°24'0 0.0
2016-Jun-24 00:32N 47°38' W 122°24'0 0.0
2016-Jun-23 23:34N 47°38' W 122°24'0 0.0
2016-Jun-23 22:32N 47°38' W 122°24'0 0.0
2016-Jun-23 21:32N 47°38' W 122°24'0 0.0
2016-Jun-23 20:29N 47°38' W 122°24'0 0.0
2016-Jun-23 19:32N 47°38' W 122°24'0 0.0
2016-Jun-23 18:33N 47°38' W 122°24'0 0.0
2016-Jun-23 17:33N 47°38' W 122°24'0 0.0
2016-Jun-23 16:32N 47°38' W 122°24'0 0.0
2016-Jun-23 15:33N 47°38' W 122°24'0 0.0
2016-Jun-23 14:32N 47°38' W 122°24'0 0.0
2016-Jun-23 13:33N 47°38' W 122°24'0 0.0
2016-Jun-23 12:32N 47°38' W 122°24'0 0.0
2016-Jun-23 11:33N 47°38' W 122°24'0 0.0
2016-Jun-23 10:33N 47°38' W 122°24'0 0.0
2016-Jun-23 09:32N 47°38' W 122°24'0 0.0
2016-Jun-23 08:33N 47°38' W 122°24'0 0.0
2016-Jun-23 07:33N 47°38' W 122°24'0 0.0
2016-Jun-23 05:32N 47°38' W 122°24'0 0.0
2016-Jun-23 04:33N 47°38' W 122°24'0 0.0
2016-Jun-23 03:33N 47°38' W 122°24'0 0.0
2016-Jun-23 02:27N 47°38' W 122°24'0 0.0
2016-Jun-23 01:33N 47°38' W 122°24'0 0.0
2016-Jun-23 00:32N 47°38' W 122°24'0 0.0
2016-Jun-22 23:32N 47°38' W 122°24'0 0.0
2016-Jun-22 22:33N 47°38' W 122°24'0 0.0
2016-Jun-22 21:32N 47°38' W 122°24'0 0.0
2016-Jun-22 20:32N 47°38' W 122°24'0 0.0
2016-Jun-22 19:33N 47°38' W 122°24'0 0.0
2016-Jun-22 18:33N 47°38' W 122°24'0 0.0
2016-Jun-22 17:33N 47°38' W 122°24'0 0.0
2016-Jun-22 16:33N 47°38' W 122°24'0 0.0
2016-Jun-22 15:32N 47°38' W 122°24'0 0.0
2016-Jun-22 14:33N 47°38' W 122°24'0 0.0
2016-Jun-22 13:33N 47°38' W 122°24'0 0.0
2016-Jun-22 12:33N 47°38' W 122°24'0 0.0
2016-Jun-22 11:32N 47°38' W 122°24'0 0.0
2016-Jun-22 10:24N 47°38' W 122°24'0 0.0
2016-Jun-22 09:33N 47°38' W 122°24'0 0.0
2016-Jun-22 08:33N 47°38' W 122°24'0 0.0
2016-Jun-22 07:32N 47°38' W 122°24'0 0.0
2016-Jun-22 06:32N 47°38' W 122°24'0 0.0
2016-Jun-22 05:33N 47°38' W 122°24'0 0.0
2016-Jun-22 04:32N 47°38' W 122°24'6 6.1
2016-Jun-22 03:33N 47°33' W 122°30'1 1.1
2016-Jun-22 02:28N 47°32' W 122°30'0 0.0
2016-Jun-22 01:28N 47°32' W 122°30'7 7.5
2016-Jun-22 00:33N 47°38' W 122°24'  

Dump ship's entire track history